createdAt,value
2023-09-12T00:01:43.590Z,1.00
2023-09-12T00:04:13.000Z,1.00
2023-09-12T00:06:41.648Z,1.00
2023-09-12T00:09:12.376Z,1.00
2023-09-12T00:11:43.007Z,1.00
2023-09-12T00:14:17.520Z,1.00
2023-09-12T00:16:46.490Z,1.00
2023-09-12T00:19:15.491Z,99.90
2023-09-12T00:21:44.781Z,99.90
2023-09-12T00:24:15.836Z,1.00
2023-09-12T00:26:45.142Z,1.00
2023-09-12T00:29:14.103Z,1.00
2023-09-12T00:31:43.836Z,1.00
2023-09-12T00:34:14.963Z,1.00
2023-09-12T00:36:43.530Z,99.90
2023-09-12T00:39:12.804Z,99.90
2023-09-12T00:41:45.323Z,1.00
2023-09-12T00:44:16.070Z,1.00
2023-09-12T00:46:46.609Z,1.00
2023-09-12T00:49:17.028Z,1.00
2023-09-12T00:51:47.346Z,1.00
2023-09-12T00:54:16.063Z,1.00
2023-09-12T00:56:46.708Z,1.00
2023-09-12T00:59:16.376Z,1.00
2023-09-12T01:01:45.859Z,1.00
2023-09-12T01:04:28.176Z,1.00
2023-09-12T01:07:04.453Z,1.00
2023-09-12T01:09:34.502Z,99.90
2023-09-12T01:12:06.463Z,1.00
2023-09-12T01:14:36.800Z,1.00
2023-09-12T01:17:05.706Z,99.90
2023-09-12T01:19:34.322Z,1.00
2023-09-12T01:22:52.382Z,1.00
2023-09-12T01:25:42.701Z,99.90
2023-09-12T01:28:15.292Z,99.90
2023-09-12T01:30:45.809Z,99.90
2023-09-12T01:33:15.060Z,99.90
2023-09-12T01:35:45.023Z,1.00
2023-09-12T01:38:15.464Z,99.90
2023-09-12T01:40:48.600Z,99.90
2023-09-12T01:43:20.433Z,99.90
2023-09-12T01:45:52.171Z,1.00
2023-09-12T01:48:23.919Z,1.00
2023-09-12T01:50:53.415Z,1.00
2023-09-12T01:53:22.594Z,1.00
2023-09-12T01:55:51.773Z,99.90
2023-09-12T01:58:23.455Z,99.90
2023-09-12T02:00:53.576Z,1.00
2023-09-12T02:03:23.973Z,99.90
2023-09-12T02:05:53.031Z,99.90
2023-09-12T02:08:23.132Z,99.90
2023-09-12T02:10:52.475Z,99.90
2023-09-12T02:13:22.842Z,99.90
2023-09-12T02:15:52.723Z,99.90
2023-09-12T02:18:21.731Z,99.90
2023-09-12T02:20:50.347Z,99.90
2023-09-12T02:23:19.098Z,99.90
2023-09-12T02:25:47.854Z,99.90
2023-09-12T02:28:17.489Z,99.90
2023-09-12T02:30:48.743Z,99.90
2023-09-12T02:33:18.003Z,99.90
2023-09-12T02:35:46.657Z,1.00
2023-09-12T02:38:16.318Z,1.00
2023-09-12T02:40:45.080Z,1.00
2023-09-12T02:43:14.065Z,1.00
2023-09-12T02:45:44.489Z,1.00
2023-09-12T02:48:17.450Z,1.00
2023-09-12T02:50:47.413Z,1.00
2023-09-12T02:53:18.497Z,1.00
2023-09-12T02:55:46.842Z,1.00
2023-09-12T02:58:16.188Z,1.00
2023-09-12T03:00:45.318Z,1.00
2023-09-12T03:03:16.665Z,1.00
2023-09-12T03:05:45.668Z,1.00
2023-09-12T03:08:18.143Z,1.00
2023-09-12T03:10:46.796Z,1.00
2023-09-12T03:13:15.250Z,1.00
2023-09-12T03:15:44.115Z,1.00
2023-09-12T03:18:15.110Z,1.00
2023-09-12T03:20:45.136Z,1.00
2023-09-12T03:23:14.115Z,1.00
2023-09-12T03:25:42.858Z,1.00
2023-09-12T03:28:12.453Z,1.00
2023-09-12T03:30:44.523Z,1.00
2023-09-12T03:33:15.130Z,1.00
2023-09-12T03:35:46.373Z,1.00
2023-09-12T03:38:14.834Z,1.00
2023-09-12T03:40:43.567Z,1.00
2023-09-12T03:43:12.834Z,1.00
2023-09-12T03:45:42.806Z,1.00
2023-09-12T03:48:11.842Z,1.00
2023-09-12T03:50:42.562Z,1.00
2023-09-12T03:53:11.441Z,1.00
2023-09-12T03:55:40.141Z,1.00
2023-09-12T03:58:09.341Z,1.00
2023-09-12T04:00:38.394Z,1.00
2023-09-12T04:03:07.559Z,1.00
2023-09-12T04:05:37.733Z,1.00
2023-09-12T04:08:08.820Z,1.00
2023-09-12T04:10:37.352Z,1.00
2023-09-12T04:13:06.515Z,1.00
2023-09-12T04:15:35.567Z,1.00
2023-09-12T04:18:04.374Z,1.00
2023-09-12T04:20:33.173Z,1.00
2023-09-12T04:23:04.956Z,1.00
2023-09-12T04:25:36.088Z,1.00
2023-09-12T04:28:05.128Z,1.00
2023-09-12T04:30:33.680Z,1.00
2023-09-12T04:33:02.634Z,1.00
2023-09-12T04:35:31.718Z,1.00
2023-09-12T04:38:00.353Z,99.90
2023-09-12T04:40:28.836Z,1.00
2023-09-12T04:43:02.209Z,99.90
2023-09-12T04:45:42.294Z,99.90
2023-09-12T04:48:18.185Z,99.90
2023-09-12T04:50:47.330Z,50.20
2023-09-12T04:53:16.331Z,1.00
2023-09-12T04:55:45.160Z,99.90
2023-09-12T04:58:15.960Z,1.00
2023-09-12T05:00:45.026Z,1.00
2023-09-12T05:03:14.342Z,1.00
2023-09-12T05:05:49.903Z,1.00
2023-09-12T05:08:19.580Z,1.00
2023-09-12T05:10:48.384Z,1.00
2023-09-12T05:13:18.404Z,1.00
2023-09-12T05:15:47.742Z,1.00
2023-09-12T05:18:16.669Z,1.00
2023-09-12T05:20:46.309Z,1.00
2023-09-12T05:23:14.922Z,1.00
2023-09-12T05:25:43.571Z,99.90
2023-09-12T05:28:12.339Z,99.90
2023-09-12T05:30:43.015Z,99.90
2023-09-12T05:33:12.727Z,99.90
2023-09-12T05:35:41.374Z,99.90
2023-09-12T05:38:10.835Z,99.90
2023-09-12T05:40:39.557Z,99.90
2023-09-12T05:43:08.694Z,99.90
2023-09-12T05:45:37.409Z,99.90
2023-09-12T05:48:10.438Z,99.90
2023-09-12T05:50:40.526Z,99.90
2023-09-12T05:53:10.334Z,99.90
2023-09-12T05:55:39.979Z,99.90
2023-09-12T05:58:08.937Z,99.90
2023-09-12T06:00:39.017Z,99.90
2023-09-12T06:03:09.926Z,99.90
2023-09-12T06:05:39.102Z,99.90
2023-09-12T06:08:09.275Z,93.10
2023-09-12T06:10:39.457Z,89.60
2023-09-12T06:13:08.938Z,99.90
2023-09-12T06:15:39.377Z,99.90
2023-09-12T06:18:10.093Z,99.90
2023-09-12T06:20:39.059Z,99.90
2023-09-12T06:23:07.843Z,99.90
2023-09-12T06:25:36.933Z,99.90
2023-09-12T06:28:06.674Z,99.90
2023-09-12T06:30:35.245Z,99.90
2023-09-12T06:33:04.073Z,99.90
2023-09-12T06:35:36.091Z,99.90
2023-09-12T06:38:06.270Z,99.30
2023-09-12T06:40:36.198Z,48.60
2023-09-12T06:43:04.531Z,66.10
2023-09-12T06:45:34.392Z,49.40
2023-09-12T06:48:05.757Z,66.80
2023-09-12T06:50:35.868Z,52.10
2023-09-12T06:53:05.791Z,4.80
2023-09-12T06:55:34.553Z,11.00
2023-09-12T06:58:04.747Z,78.50
2023-09-12T07:00:35.664Z,41.10
2023-09-12T07:03:05.363Z,99.90
2023-09-12T07:05:40.029Z,32.80
2023-09-12T07:08:10.030Z,52.70
2023-09-12T07:10:38.802Z,99.30
2023-09-12T07:13:07.568Z,99.90
2023-09-12T07:15:38.692Z,99.90
2023-09-12T07:18:08.282Z,17.20
2023-09-12T07:20:38.760Z,42.30
2023-09-12T07:23:08.291Z,15.40
2023-09-12T07:25:43.603Z,2.30
2023-09-12T07:28:12.402Z,25.30
2023-09-12T07:30:41.148Z,1.00
2023-09-12T07:33:10.291Z,18.90
2023-09-12T07:35:41.287Z,15.70
2023-09-12T07:38:09.969Z,6.40
2023-09-12T07:40:39.237Z,1.00
2023-09-12T07:43:08.932Z,1.00
2023-09-12T07:45:39.172Z,1.00
2023-09-12T07:48:09.553Z,1.00
2023-09-12T07:50:40.832Z,1.00
2023-09-12T07:53:10.288Z,1.00
2023-09-12T07:55:46.914Z,1.00
2023-09-12T07:58:16.918Z,1.00
2023-09-12T08:00:45.498Z,1.00
2023-09-12T08:03:17.392Z,1.00
2023-09-12T08:05:58.058Z,1.00
2023-09-12T08:08:26.834Z,1.00
2023-09-12T08:10:55.452Z,1.00
2023-09-12T08:13:24.438Z,1.00
2023-09-12T08:15:53.509Z,1.00
2023-09-12T08:18:22.392Z,1.00
2023-09-12T08:20:52.831Z,1.00
2023-09-12T08:23:21.579Z,1.00
2023-09-12T08:25:51.980Z,1.00
2023-09-12T08:28:20.332Z,1.00
2023-09-12T08:30:48.786Z,1.00
2023-09-12T08:33:17.952Z,1.00
2023-09-12T08:35:46.676Z,1.00
2023-09-12T08:38:16.902Z,1.00
2023-09-12T08:40:51.337Z,1.00
2023-09-12T08:43:20.724Z,1.00
2023-09-12T08:45:50.101Z,1.00
2023-09-12T08:48:21.901Z,1.00
2023-09-12T08:50:54.205Z,1.00
2023-09-12T08:53:24.280Z,1.00
2023-09-12T08:55:54.916Z,1.00
2023-09-12T08:58:24.388Z,1.00
2023-09-12T09:00:54.459Z,1.00
2023-09-12T09:03:24.694Z,1.00
2023-09-12T09:05:54.851Z,1.00
2023-09-12T09:08:25.630Z,1.00
2023-09-12T09:11:03.922Z,1.00
2023-09-12T09:13:32.856Z,1.00
2023-09-12T09:16:15.397Z,1.00
2023-09-12T09:18:59.062Z,1.00
2023-09-12T09:21:29.372Z,1.00
2023-09-12T09:24:02.074Z,1.00
2023-09-12T09:26:45.192Z,1.00
2023-09-12T09:29:16.944Z,1.00
2023-09-12T09:31:47.649Z,1.00
2023-09-12T09:34:17.921Z,1.00
2023-09-12T09:36:49.190Z,1.00
2023-09-12T09:39:20.748Z,1.00
2023-09-12T09:41:51.033Z,1.00
2023-09-12T09:44:19.883Z,1.00
2023-09-12T09:46:53.092Z,1.00
2023-09-12T09:49:30.625Z,1.00
2023-09-12T09:52:00.050Z,1.00
2023-09-12T09:54:30.400Z,1.00
2023-09-12T09:56:59.911Z,1.00
2023-09-12T09:59:29.826Z,1.00
2023-09-12T10:02:00.102Z,1.00
2023-09-12T10:04:31.300Z,1.00
2023-09-12T10:07:00.868Z,1.00
2023-09-12T10:09:32.751Z,1.00
2023-09-12T10:12:01.424Z,1.00
2023-09-12T10:14:32.209Z,1.00
2023-09-12T10:17:07.594Z,1.00
2023-09-12T10:19:43.714Z,1.00
2023-09-12T10:22:23.907Z,1.00
2023-09-12T10:24:56.289Z,1.00
2023-09-12T10:27:26.838Z,1.00
2023-09-12T10:29:57.480Z,1.00
2023-09-12T10:32:28.503Z,1.00
2023-09-12T10:35:00.760Z,1.00
2023-09-12T10:37:31.745Z,1.00
2023-09-12T10:40:05.023Z,1.00
2023-09-12T10:42:35.997Z,1.00
2023-09-12T10:45:09.443Z,1.00
2023-09-12T10:47:41.236Z,1.00
2023-09-12T10:50:12.742Z,1.00
2023-09-12T10:52:42.597Z,1.00
2023-09-12T10:55:21.984Z,1.00
2023-09-12T10:58:14.612Z,1.00
2023-09-12T11:00:43.840Z,99.90
2023-09-12T11:03:42.340Z,99.90
2023-09-12T11:06:25.045Z,99.90
2023-09-12T11:09:20.857Z,99.90
2023-09-12T11:11:56.899Z,99.90
2023-09-12T11:14:27.748Z,99.90
2023-09-12T11:17:29.339Z,99.90
2023-09-12T11:20:11.714Z,99.90
2023-09-12T11:22:41.897Z,99.90
2023-09-12T11:25:25.453Z,99.90
2023-09-12T11:28:10.333Z,99.90
2023-09-12T11:30:39.246Z,99.90
2023-09-12T11:33:12.838Z,99.90
2023-09-12T11:35:44.758Z,99.90
2023-09-12T11:38:14.055Z,99.90
2023-09-12T11:40:47.852Z,99.90
2023-09-12T11:43:28.509Z,99.90
2023-09-12T11:45:59.114Z,99.90
2023-09-12T11:48:28.348Z,99.90
2023-09-12T11:50:58.085Z,99.90
2023-09-12T11:53:31.301Z,99.90
2023-09-12T11:56:01.637Z,99.90
2023-09-12T11:58:32.072Z,99.90
2023-09-12T12:01:01.957Z,99.90
2023-09-12T12:03:31.289Z,99.90
2023-09-12T12:06:00.200Z,99.90
2023-09-12T12:08:32.792Z,99.90
2023-09-12T12:11:03.555Z,99.90
2023-09-12T12:13:36.069Z,99.90
2023-09-12T12:16:17.286Z,99.90
2023-09-12T12:18:45.669Z,99.90
2023-09-12T12:21:14.257Z,99.90
2023-09-12T12:23:42.988Z,99.90
2023-09-12T12:26:14.543Z,99.90
2023-09-12T12:28:45.970Z,99.90
2023-09-12T12:31:15.379Z,99.90
2023-09-12T12:34:39.332Z,99.90
2023-09-12T12:36:56.464Z,99.90
2023-09-12T12:39:26.994Z,99.90
2023-09-12T12:41:56.603Z,99.90
2023-09-12T12:44:35.360Z,99.90
2023-09-12T12:47:08.277Z,99.90
2023-09-12T12:49:41.073Z,99.90
2023-09-12T12:52:12.799Z,99.90
2023-09-12T12:54:45.498Z,99.90
2023-09-12T12:57:15.946Z,99.90
2023-09-12T12:59:49.319Z,99.90
2023-09-12T13:02:18.500Z,99.90
2023-09-12T13:04:47.352Z,99.90
2023-09-12T13:07:16.108Z,99.90
2023-09-12T13:09:45.268Z,99.90
2023-09-12T13:12:14.446Z,99.90
2023-09-12T13:14:42.703Z,99.90
2023-09-12T13:17:13.092Z,99.90
2023-09-12T13:19:41.620Z,99.90
2023-09-12T13:22:11.008Z,99.90
2023-09-12T13:24:39.568Z,99.90
2023-09-12T13:27:08.159Z,99.90
2023-09-12T13:29:38.069Z,99.90
2023-09-12T13:32:09.146Z,99.90
2023-09-12T13:34:40.101Z,99.90
2023-09-12T13:37:12.725Z,99.90
2023-09-12T13:39:42.429Z,99.90
2023-09-12T13:42:11.431Z,99.90
2023-09-12T13:44:40.593Z,99.90
2023-09-12T13:47:09.104Z,99.90
2023-09-12T13:49:39.366Z,99.90
2023-09-12T13:52:08.402Z,99.90
2023-09-12T13:54:37.414Z,99.90
2023-09-12T13:57:06.570Z,99.90
2023-09-12T13:59:44.205Z,99.90
2023-09-12T14:02:14.086Z,99.90
2023-09-12T14:04:44.642Z,99.90
2023-09-12T14:07:14.469Z,99.90
2023-09-12T14:09:44.179Z,99.90
2023-09-12T14:12:23.059Z,99.90
2023-09-12T14:15:05.503Z,99.90
2023-09-12T14:17:38.669Z,99.90
2023-09-12T14:20:16.787Z,99.90
2023-09-12T14:22:46.287Z,99.90
2023-09-12T14:25:16.574Z,99.90
2023-09-12T14:27:46.433Z,99.90
2023-09-12T14:30:15.802Z,99.90
2023-09-12T14:32:44.710Z,99.90
2023-09-12T14:35:14.817Z,99.90
2023-09-12T14:37:43.770Z,99.90
2023-09-12T14:40:15.294Z,99.90
2023-09-12T14:42:43.567Z,99.90
2023-09-12T14:45:13.443Z,99.90
2023-09-12T14:47:42.251Z,99.90
2023-09-12T14:50:11.528Z,99.90
2023-09-12T14:52:43.466Z,99.90
2023-09-12T14:55:12.222Z,99.90
2023-09-12T14:57:41.878Z,99.90
2023-09-12T15:00:13.699Z,99.90
2023-09-12T15:02:43.611Z,99.90
2023-09-12T15:05:12.178Z,99.90
2023-09-12T15:07:41.957Z,99.90
2023-09-12T15:10:11.465Z,99.90
2023-09-12T15:12:40.923Z,99.90
2023-09-12T15:15:11.009Z,99.90
2023-09-12T15:17:39.998Z,99.90
2023-09-12T15:20:09.436Z,99.90
2023-09-12T15:22:39.724Z,99.90
2023-09-12T15:25:11.643Z,99.90
2023-09-12T15:27:40.301Z,99.90
2023-09-12T15:30:09.654Z,99.90
2023-09-12T15:32:38.123Z,99.90
2023-09-12T15:35:07.525Z,99.90
2023-09-12T15:37:35.984Z,99.90
2023-09-12T15:40:06.571Z,99.90
2023-09-12T15:42:38.038Z,99.90
2023-09-12T15:45:10.041Z,99.90
2023-09-12T15:47:39.942Z,99.90
2023-09-12T15:50:09.464Z,99.90
2023-09-12T15:52:39.124Z,99.90
2023-09-12T15:55:08.361Z,99.90
2023-09-12T15:57:39.650Z,99.90
2023-09-12T16:00:12.101Z,99.90
2023-09-12T16:02:44.638Z,99.90
2023-09-12T16:05:13.056Z,99.90
2023-09-12T16:07:41.961Z,99.90
2023-09-12T16:10:13.846Z,99.90
2023-09-12T16:12:44.560Z,99.90
2023-09-12T16:15:13.352Z,99.90
2023-09-12T16:17:44.683Z,99.90
2023-09-12T16:20:15.745Z,99.90
2023-09-12T16:22:44.600Z,99.90
2023-09-12T16:25:13.193Z,99.90
2023-09-12T16:27:42.455Z,99.90
2023-09-12T16:30:13.713Z,99.90
2023-09-12T16:32:42.480Z,99.90
2023-09-12T16:35:12.622Z,99.90
2023-09-12T16:37:41.937Z,99.90
2023-09-12T16:40:11.429Z,99.90
2023-09-12T16:42:40.270Z,99.90
2023-09-12T16:45:14.102Z,99.90
2023-09-12T16:47:43.125Z,99.90
2023-09-12T16:50:12.012Z,99.90
2023-09-12T16:52:41.194Z,99.90
2023-09-12T16:55:17.979Z,99.90
2023-09-12T16:57:47.496Z,99.90
2023-09-12T17:00:21.084Z,99.90
2023-09-12T17:02:50.952Z,99.90
2023-09-12T17:05:19.765Z,99.90
2023-09-12T17:07:49.533Z,99.90
2023-09-12T17:10:19.638Z,99.90
2023-09-12T17:12:49.332Z,99.90
2023-09-12T17:15:22.222Z,99.90
2023-09-12T17:17:50.942Z,99.90
2023-09-12T17:20:19.903Z,99.90
2023-09-12T17:22:50.589Z,99.90
2023-09-12T17:25:21.211Z,99.90
2023-09-12T17:27:52.844Z,99.90
2023-09-12T17:30:24.475Z,99.90
2023-09-12T17:32:54.883Z,99.90
2023-09-12T17:35:24.761Z,99.90
2023-09-12T17:37:53.134Z,99.90
2023-09-12T17:40:21.999Z,99.90
2023-09-12T17:42:51.070Z,99.90
2023-09-12T17:45:19.620Z,99.90
2023-09-12T17:47:51.982Z,99.90
2023-09-12T17:50:20.654Z,99.90
2023-09-12T17:52:51.014Z,99.90
2023-09-12T17:55:20.700Z,99.90
2023-09-12T17:57:49.080Z,99.90
2023-09-12T18:00:18.713Z,99.90
2023-09-12T18:02:49.160Z,99.90
2023-09-12T18:05:18.168Z,99.90
2023-09-12T18:07:46.711Z,99.90
2023-09-12T18:10:15.522Z,99.90
2023-09-12T18:12:44.790Z,99.90
2023-09-12T18:15:14.652Z,99.90
2023-09-12T18:17:44.036Z,99.90
2023-09-12T18:20:15.473Z,99.90
2023-09-12T18:22:44.130Z,99.90
2023-09-12T18:25:13.371Z,99.90
2023-09-12T18:27:42.417Z,99.90
2023-09-12T18:30:12.195Z,99.90
2023-09-12T18:32:41.229Z,99.90
2023-09-12T18:35:11.789Z,99.90
2023-09-12T18:37:43.006Z,99.90
2023-09-12T18:40:12.434Z,99.90
2023-09-12T18:42:41.181Z,99.90
2023-09-12T18:45:10.862Z,99.90
2023-09-12T18:47:41.381Z,99.90
2023-09-12T18:50:11.019Z,99.90
2023-09-12T18:52:54.458Z,99.90
2023-09-12T18:55:28.257Z,99.90
2023-09-12T18:58:02.456Z,99.90
2023-09-12T19:00:31.967Z,99.90
2023-09-12T19:03:00.771Z,99.90
2023-09-12T19:05:32.123Z,99.90
2023-09-12T19:08:04.754Z,99.90
2023-09-12T19:10:33.509Z,99.90
2023-09-12T19:13:05.817Z,99.90
2023-09-12T19:15:36.913Z,99.90
2023-09-12T19:18:09.386Z,99.90
2023-09-12T19:20:40.176Z,99.90
2023-09-12T19:23:11.046Z,99.90
2023-09-12T19:25:41.701Z,99.90
2023-09-12T19:28:15.103Z,99.90
2023-09-12T19:30:46.610Z,99.90
2023-09-12T19:33:15.363Z,99.90
2023-09-12T19:35:47.064Z,99.90
2023-09-12T19:38:17.775Z,99.90
2023-09-12T19:40:46.504Z,99.90
2023-09-12T19:43:15.508Z,99.90
2023-09-12T19:45:44.993Z,99.90
2023-09-12T19:48:15.985Z,99.90
2023-09-12T19:50:50.025Z,99.90
2023-09-12T19:53:23.036Z,1.00
2023-09-12T19:55:56.992Z,1.00
2023-09-12T19:58:27.900Z,1.00
2023-09-12T20:01:00.523Z,1.00
2023-09-12T20:03:29.583Z,1.00
2023-09-12T20:05:59.164Z,99.90
2023-09-12T20:08:32.091Z,99.90
2023-09-12T20:11:01.214Z,99.90
2023-09-12T20:13:31.166Z,99.90
2023-09-12T20:16:01.902Z,1.00
2023-09-12T20:18:31.983Z,1.00
2023-09-12T20:21:01.055Z,1.00
2023-09-12T20:23:31.981Z,1.00
2023-09-12T20:26:02.748Z,1.00
2023-09-12T20:28:32.863Z,1.00
2023-09-12T20:31:01.977Z,1.00
2023-09-12T20:33:31.973Z,1.00
2023-09-12T20:36:00.847Z,1.00
2023-09-12T20:38:31.585Z,1.00
2023-09-12T20:41:00.202Z,1.00
2023-09-12T20:43:31.378Z,1.00
2023-09-12T20:46:00.354Z,1.00
2023-09-12T20:48:33.000Z,1.00
2023-09-12T20:51:02.630Z,1.00
2023-09-12T20:53:32.862Z,1.00
2023-09-12T20:56:01.489Z,1.00
2023-09-12T20:58:30.703Z,1.00
2023-09-12T21:00:59.783Z,1.00
2023-09-12T21:03:29.586Z,99.90
2023-09-12T21:05:58.426Z,99.90
2023-09-12T21:08:27.260Z,99.90
2023-09-12T21:10:57.717Z,99.90
2023-09-12T21:13:26.817Z,99.90
2023-09-12T21:15:55.748Z,99.90
2023-09-12T21:18:25.278Z,99.90
2023-09-12T21:20:55.606Z,99.90
2023-09-12T21:23:27.240Z,99.90
2023-09-12T21:25:58.728Z,99.90
2023-09-12T21:28:28.765Z,99.90
2023-09-12T21:30:57.913Z,99.90
2023-09-12T21:33:26.923Z,99.90
2023-09-12T21:35:56.121Z,99.90
2023-09-12T21:38:25.042Z,99.90
2023-09-12T21:40:53.722Z,99.90
2023-09-12T21:43:24.495Z,1.00
2023-09-12T21:45:53.457Z,1.00
2023-09-12T21:48:22.836Z,1.00
2023-09-12T21:50:53.243Z,1.00
2023-09-12T21:53:22.206Z,1.00
2023-09-12T21:55:51.453Z,1.00
2023-09-12T21:58:20.107Z,1.00
2023-09-12T22:00:53.612Z,1.00
2023-09-12T22:03:25.071Z,1.00
2023-09-12T22:05:53.570Z,1.00
2023-09-12T22:08:23.226Z,1.00
2023-09-12T22:10:52.575Z,1.00
2023-09-12T22:13:21.838Z,90.30
2023-09-12T22:15:52.305Z,99.90
2023-09-12T22:18:21.146Z,99.90
2023-09-12T22:20:50.240Z,99.90
2023-09-12T22:23:19.989Z,99.90
2023-09-12T22:25:49.057Z,99.90
2023-09-12T22:28:19.675Z,99.90
2023-09-12T22:30:48.347Z,1.00
2023-09-12T22:33:19.072Z,1.00
2023-09-12T22:36:08.387Z,99.90
2023-09-12T22:38:41.402Z,1.00
2023-09-12T22:41:10.912Z,1.00
2023-09-12T22:43:39.734Z,1.00
2023-09-12T22:46:08.683Z,1.00
2023-09-12T22:48:39.798Z,1.00
2023-09-12T22:51:08.787Z,1.00
2023-09-12T22:53:37.617Z,1.00
2023-09-12T22:56:08.000Z,1.00
2023-09-12T22:58:37.095Z,1.00
2023-09-12T23:01:06.218Z,1.00
2023-09-12T23:03:35.297Z,1.00
2023-09-12T23:06:06.392Z,1.00
2023-09-12T23:08:34.925Z,1.00
2023-09-12T23:11:09.174Z,1.00
2023-09-12T23:13:37.943Z,1.00
2023-09-12T23:16:06.723Z,99.90
2023-09-12T23:18:36.399Z,99.90
2023-09-12T23:21:06.436Z,99.90
2023-09-12T23:23:35.221Z,99.90
2023-09-12T23:26:04.658Z,99.90
2023-09-12T23:28:33.343Z,99.90
2023-09-12T23:31:02.063Z,99.90
2023-09-12T23:33:30.850Z,98.60
2023-09-12T23:35:59.712Z,99.90
2023-09-12T23:38:30.504Z,98.80
2023-09-12T23:40:59.140Z,99.90
2023-09-12T23:43:27.677Z,78.60
2023-09-12T23:45:59.345Z,57.60
2023-09-12T23:48:27.745Z,94.00
2023-09-12T23:50:56.843Z,93.60
2023-09-12T23:53:25.531Z,99.90
2023-09-12T23:56:02.286Z,79.20
2023-09-12T23:58:31.579Z,91.00
